Time;durP1;ratioP1;P1;durP2;ratioP2;P2;SDS_P1;SDS_P2;PMS_P1;PMS_P2;Temp;Humidity;BMP_temperature;BMP_pressure;BME280_temperature;BME280_humidity;BME280_pressure;Samples;Min_cycle;Max_cycle;Signal;HPM_P1;HPM_P2
2022/08/26 00:02:23;;;;;;;13.15;5.55;;;;;;;;;;5115888;28;20016;-83
2022/08/26 00:04:49;;;;;;;14.07;5.20;;;;;;;;;;5115782;28;20016;-82
2022/08/26 00:07:15;;;;;;;11.82;4.63;;;;;;;;;;5115701;28;20056;-82
2022/08/26 00:09:42;;;;;;;14.43;4.82;;;;;;;;;;5115634;28;20381;-82
2022/08/26 00:12:08;;;;;;;14.93;6.00;;;;;;;;;;5116219;28;20093;-82
2022/08/26 00:14:34;;;;;;;10.35;4.43;;;;;;;;;;5097198;28;20027;-82
2022/08/26 00:17:00;;;;;;;10.43;5.07;;;;;;;;;;5097120;28;20480;-82
2022/08/26 00:19:26;;;;;;;12.25;4.70;;;;;;;;;;5115807;28;20024;-82
2022/08/26 00:21:53;;;;;;;8.88;4.85;;;;;;;;;;5115601;28;20028;-82
2022/08/26 00:24:20;;;;;;;13.05;5.07;;;;;;;;;;5091662;28;20131;-82
2022/08/26 00:26:46;;;;;;;8.38;4.30;;;;;;;;;;5076673;28;20028;-82
2022/08/26 00:29:13;;;;;;;16.15;4.95;;;;;;;;;;5094885;28;20039;-83
2022/08/26 00:31:39;;;;;;;10.45;4.40;;;;;;;;;;5076606;28;20024;-82
2022/08/26 00:34:05;;;;;;;13.35;4.10;;;;;;;;;;5094894;28;20085;-83
2022/08/26 00:36:31;;;;;;;8.80;4.18;;;;;;;;;;5094735;28;20052;-82
2022/08/26 00:38:57;;;;;;;9.55;4.13;;;;;;;;;;5076453;28;20039;-82
2022/08/26 00:41:23;;;;;;;9.98;3.35;;;;;;;;;;5094977;28;20046;-83
2022/08/26 00:43:50;;;;;;;13.88;4.95;;;;;;;;;;5094450;28;20031;-82
2022/08/26 00:46:19;;;;;;;9.68;4.20;;;;;;;;;;5094714;28;20028;-82
2022/08/26 00:48:46;;;;;;;11.93;4.22;;;;;;;;;;5076238;28;20028;-82
2022/08/26 00:51:15;;;;;;;11.10;4.03;;;;;;;;;;5076022;28;20028;-82
2022/08/26 00:53:45;;;;;;;9.15;3.80;;;;;;;;;;5075825;28;20047;-82
2022/08/26 00:56:18;;;;;;;8.73;3.88;;;;;;;;;;5094467;28;20051;-82
2022/08/26 00:58:46;;;;;;;10.15;3.70;;;;;;;;;;5094060;28;20123;-83
2022/08/26 01:01:13;;;;;;;8.63;3.97;;;;;;;;;;5094457;28;20044;-82
2022/08/26 01:03:39;;;;;;;12.55;4.03;;;;;;;;;;5094263;28;20024;-82
2022/08/26 01:06:07;;;;;;;8.00;3.85;;;;;;;;;;5094035;28;20020;-82
2022/08/26 01:08:33;;;;;;;12.65;4.18;;;;;;;;;;5075793;28;20035;-82
2022/08/26 01:11:00;;;;;;;8.60;3.80;;;;;;;;;;5075782;28;20028;-83
2022/08/26 01:13:27;;;;;;;6.68;3.20;;;;;;;;;;5093874;28;20362;-82
2022/08/26 01:15:55;;;;;;;10.77;4.45;;;;;;;;;;5094021;28;20036;-82
2022/08/26 01:18:21;;;;;;;12.85;4.25;;;;;;;;;;5093941;28;20062;-83
2022/08/26 01:20:50;;;;;;;11.57;4.43;;;;;;;;;;5075633;28;20023;-83
2022/08/26 01:23:17;;;;;;;8.40;3.92;;;;;;;;;;5075570;28;20024;-82
2022/08/26 01:25:45;;;;;;;7.47;3.63;;;;;;;;;;5075371;28;20024;-82
2022/08/26 01:28:14;;;;;;;8.52;4.10;;;;;;;;;;5075484;28;20488;-83
2022/08/26 01:30:40;;;;;;;12.50;3.67;;;;;;;;;;5075492;28;20028;-83
2022/08/26 01:33:10;;;;;;;9.18;3.70;;;;;;;;;;5075312;28;20390;-83
2022/08/26 01:35:36;;;;;;;14.75;4.32;;;;;;;;;;5093492;28;20078;-83
2022/08/26 01:38:03;;;;;;;12.07;4.35;;;;;;;;;;5093728;28;20020;-82
2022/08/26 01:40:31;;;;;;;13.40;4.47;;;;;;;;;;5075148;28;20393;-82
2022/08/26 01:42:59;;;;;;;14.15;4.40;;;;;;;;;;5075103;28;20055;-83
2022/08/26 01:45:27;;;;;;;8.90;3.80;;;;;;;;;;5075229;28;20020;-83
2022/08/26 01:47:55;;;;;;;10.82;4.47;;;;;;;;;;5075070;28;20024;-83
2022/08/26 01:50:23;;;;;;;9.85;3.85;;;;;;;;;;5093369;28;20016;-82
2022/08/26 01:52:51;;;;;;;11.35;4.40;;;;;;;;;;5093243;28;20435;-82
2022/08/26 01:55:18;;;;;;;7.47;3.78;;;;;;;;;;5093128;28;20475;-82
2022/08/26 01:57:45;;;;;;;8.82;3.15;;;;;;;;;;5075028;28;20339;-82
2022/08/26 02:00:12;;;;;;;11.60;3.50;;;;;;;;;;5092994;28;20122;-82
2022/08/26 02:02:39;;;;;;;12.23;3.50;;;;;;;;;;5093014;28;20023;-83
2022/08/26 02:05:09;;;;;;;8.73;3.40;;;;;;;;;;5074370;28;20020;-82
2022/08/26 02:07:35;;;;;;;10.32;3.38;;;;;;;;;;5093208;28;20543;-83
2022/08/26 02:10:01;;;;;;;8.60;2.90;;;;;;;;;;5074601;28;20471;-82
2022/08/26 02:12:27;;;;;;;7.78;3.05;;;;;;;;;;5092699;28;20416;-83
2022/08/26 02:14:54;;;;;;;7.95;3.20;;;;;;;;;;5092970;28;20097;-82
2022/08/26 02:17:23;;;;;;;7.68;3.05;;;;;;;;;;5074542;28;20382;-82
2022/08/26 02:19:50;;;;;;;13.10;3.30;;;;;;;;;;5093016;28;20016;-82
2022/08/26 02:22:18;;;;;;;8.75;2.85;;;;;;;;;;5074484;28;20074;-83
2022/08/26 02:24:49;;;;;;;10.75;3.45;;;;;;;;;;5083112;28;20119;-83
2022/08/26 02:27:16;;;;;;;7.55;2.80;;;;;;;;;;5094633;28;20027;-83
2022/08/26 02:29:48;;;;;;;8.43;2.78;;;;;;;;;;5113484;28;20470;-83
2022/08/26 02:32:14;;;;;;;14.10;2.63;;;;;;;;;;5094914;28;20047;-82
2022/08/26 02:34:40;;;;;;;8.60;2.92;;;;;;;;;;5094489;28;20027;-82
2022/08/26 02:37:08;;;;;;;11.50;2.50;;;;;;;;;;5113095;28;20016;-83
2022/08/26 02:39:35;;;;;;;9.07;2.63;;;;;;;;;;5112910;28;20023;-82
2022/08/26 02:42:01;;;;;;;8.27;2.42;;;;;;;;;;5113021;28;20450;-82
2022/08/26 02:44:27;;;;;;;12.60;2.88;;;;;;;;;;5094482;28;20039;-82
2022/08/26 02:46:54;;;;;;;7.82;2.72;;;;;;;;;;5094381;28;20126;-83
2022/08/26 02:49:20;;;;;;;11.95;2.50;;;;;;;;;;5094279;28;20034;-83
2022/08/26 02:51:48;;;;;;;8.60;2.55;;;;;;;;;;5112701;28;20028;-83
2022/08/26 02:54:14;;;;;;;9.27;2.33;;;;;;;;;;5094275;28;20028;-82
2022/08/26 02:56:40;;;;;;;7.55;1.77;;;;;;;;;;5112809;28;20016;-82
2022/08/26 02:59:06;;;;;;;4.90;2.00;;;;;;;;;;5092026;28;20044;-83
2022/08/26 03:01:33;;;;;;;15.20;2.90;;;;;;;;;;5092559;28;20016;-82
2022/08/26 03:04:00;;;;;;;5.55;1.63;;;;;;;;;;5092241;28;20107;-83
2022/08/26 03:06:27;;;;;;;8.60;1.73;;;;;;;;;;5074113;28;20371;-82
2022/08/26 03:08:54;;;;;;;9.10;1.52;;;;;;;;;;5073972;28;20036;-83
2022/08/26 03:11:21;;;;;;;6.80;2.42;;;;;;;;;;5073979;28;20105;-83
2022/08/26 03:13:47;;;;;;;7.38;1.83;;;;;;;;;;5074096;28;20028;-82
2022/08/26 03:16:14;;;;;;;5.20;1.48;;;;;;;;;;5073844;28;20024;-83
2022/08/26 03:18:40;;;;;;;6.72;1.75;;;;;;;;;;5095755;28;20020;-83
2022/08/26 03:21:08;;;;;;;8.32;1.55;;;;;;;;;;5077917;28;20131;-82
2022/08/26 03:23:34;;;;;;;7.75;1.40;;;;;;;;;;5096348;28;20057;-82
2022/08/26 03:26:00;;;;;;;10.02;2.10;;;;;;;;;;5096017;28;20024;-82
2022/08/26 03:28:26;;;;;;;12.73;2.45;;;;;;;;;;5096113;28;20093;-82
2022/08/26 03:30:52;;;;;;;9.18;1.10;;;;;;;;;;5077645;28;20058;-83
2022/08/26 03:33:19;;;;;;;6.45;1.20;;;;;;;;;;5095799;28;20031;-82
2022/08/26 03:35:48;;;;;;;5.82;1.10;;;;;;;;;;5086323;28;20047;-83
2022/08/26 03:38:14;;;;;;;5.53;1.20;;;;;;;;;;5097676;28;20115;-82
2022/08/26 03:40:41;;;;;;;6.78;1.20;;;;;;;;;;5116163;28;20024;-83
2022/08/26 03:43:07;;;;;;;8.18;1.50;;;;;;;;;;5097611;28;20137;-83
2022/08/26 03:45:34;;;;;;;7.03;1.27;;;;;;;;;;5115977;28;20024;-83
2022/08/26 03:48:00;;;;;;;7.88;2.08;;;;;;;;;;5097463;28;20024;-83
2022/08/26 03:50:26;;;;;;;7.05;1.30;;;;;;;;;;5116579;28;20045;-82
2022/08/26 03:52:53;;;;;;;6.70;1.58;;;;;;;;;;5115867;28;20047;-83
2022/08/26 03:55:20;;;;;;;5.35;1.63;;;;;;;;;;5097485;28;20469;-83
2022/08/26 03:57:46;;;;;;;6.18;1.35;;;;;;;;;;5115909;28;20055;-83
2022/08/26 04:00:14;;;;;;;3.97;1.40;;;;;;;;;;5115531;28;20055;-83
2022/08/26 04:02:44;;;;;;;5.82;1.25;;;;;;;;;;5115830;28;20084;-83
2022/08/26 04:05:12;;;;;;;4.72;1.15;;;;;;;;;;5097254;28;20130;-83
2022/08/26 04:07:38;;;;;;;14.77;1.75;;;;;;;;;;5115564;28;20484;-83
2022/08/26 04:10:04;;;;;;;4.78;1.50;;;;;;;;;;5115658;28;20074;-83
2022/08/26 04:12:30;;;;;;;7.93;1.38;;;;;;;;;;5115792;28;20024;-83
2022/08/26 04:14:56;;;;;;;12.35;1.77;;;;;;;;;;5115568;28;20035;-83
2022/08/26 04:17:24;;;;;;;10.77;1.95;;;;;;;;;;5096801;28;20756;-83
2022/08/26 04:19:51;;;;;;;4.80;1.38;;;;;;;;;;5115442;28;20016;-83
2022/08/26 04:22:17;;;;;;;6.93;1.25;;;;;;;;;;5097040;28;20377;-82
2022/08/26 04:24:44;;;;;;;7.90;1.20;;;;;;;;;;5106695;28;20035;-83
2022/08/26 04:27:10;;;;;;;6.65;1.02;;;;;;;;;;5076626;28;20085;-83
2022/08/26 04:29:37;;;;;;;5.82;1.33;;;;;;;;;;5094314;28;20385;-83
2022/08/26 04:32:04;;;;;;;6.47;1.20;;;;;;;;;;5076469;28;20028;-82
2022/08/26 04:34:31;;;;;;;5.57;1.13;;;;;;;;;;5094452;28;20020;-82
2022/08/26 04:36:57;;;;;;;9.93;1.17;;;;;;;;;;5094626;28;20074;-83
2022/08/26 04:39:23;;;;;;;3.90;0.98;;;;;;;;;;5076463;28;20064;-83
2022/08/26 04:41:52;;;;;;;6.00;1.55;;;;;;;;;;5076234;28;20082;-83
2022/08/26 04:44:18;;;;;;;10.80;1.20;;;;;;;;;;5076291;28;20098;-83
2022/08/26 04:46:44;;;;;;;7.35;1.00;;;;;;;;;;5094508;28;20061;-83
2022/08/26 04:49:10;;;;;;;11.68;1.25;;;;;;;;;;5094685;28;20067;-82
2022/08/26 04:51:36;;;;;;;5.80;1.02;;;;;;;;;;5094307;28;20026;-83
2022/08/26 04:54:05;;;;;;;11.85;1.05;;;;;;;;;;5094278;28;20024;-83
2022/08/26 04:56:33;;;;;;;6.80;1.15;;;;;;;;;;5076578;28;20104;-83
2022/08/26 04:58:59;;;;;;;4.97;0.90;;;;;;;;;;5094924;28;20023;-83
2022/08/26 05:01:26;;;;;;;10.98;1.27;;;;;;;;;;5096274;28;20115;-83
2022/08/26 05:03:53;;;;;;;5.28;1.10;;;;;;;;;;5114733;28;20027;-83
2022/08/26 05:06:19;;;;;;;7.68;0.98;;;;;;;;;;5114697;28;20024;-83
2022/08/26 05:08:45;;;;;;;4.88;1.33;;;;;;;;;;5114555;28;20475;-83
2022/08/26 05:11:12;;;;;;;8.98;1.00;;;;;;;;;;5114588;28;20032;-83
2022/08/26 05:13:39;;;;;;;8.30;1.05;;;;;;;;;;5095875;28;20031;-83
2022/08/26 05:16:06;;;;;;;7.93;1.45;;;;;;;;;;5114335;28;20030;-83
2022/08/26 05:18:33;;;;;;;7.13;1.20;;;;;;;;;;5095517;28;20012;-83
2022/08/26 05:20:59;;;;;;;7.18;1.15;;;;;;;;;;5095914;28;20030;-83
2022/08/26 05:23:25;;;;;;;8.32;1.30;;;;;;;;;;5095811;28;20032;-83
2022/08/26 05:25:52;;;;;;;7.07;1.05;;;;;;;;;;5114328;28;20028;-83
2022/08/26 05:28:19;;;;;;;10.18;1.38;;;;;;;;;;5114220;28;20515;-83
2022/08/26 05:30:45;;;;;;;6.53;1.10;;;;;;;;;;5095681;28;20034;-83
2022/08/26 05:33:12;;;;;;;4.10;1.02;;;;;;;;;;5095476;28;20080;-83
2022/08/26 05:35:38;;;;;;;6.03;1.25;;;;;;;;;;5095535;28;20016;-83
2022/08/26 05:38:05;;;;;;;5.07;1.15;;;;;;;;;;5095604;28;20027;-83
2022/08/26 05:40:43;;;;;;;5.13;1.10;;;;;;;;;;5113270;28;20026;-83
2022/08/26 05:43:09;;;;;;;12.25;1.92;;;;;;;;;;5114071;28;20016;-83
2022/08/26 05:45:39;;;;;;;6.68;1.20;;;;;;;;;;5113633;28;20030;-83
2022/08/26 05:48:08;;;;;;;10.38;1.40;;;;;;;;;;5095216;28;20020;-83
2022/08/26 05:50:41;;;;;;;6.90;1.27;;;;;;;;;;5113543;28;20515;-83
2022/08/26 05:53:08;;;;;;;5.18;0.90;;;;;;;;;;5113514;28;20458;-83
2022/08/26 05:55:35;;;;;;;5.20;1.17;;;;;;;;;;5113594;28;20020;-83
2022/08/26 05:58:01;;;;;;;6.47;1.58;;;;;;;;;;5113556;28;20395;-83
2022/08/26 06:00:27;;;;;;;9.88;1.20;;;;;;;;;;5112869;28;20485;-83
2022/08/26 06:02:53;;;;;;;6.82;1.20;;;;;;;;;;5094276;28;20462;-83
2022/08/26 06:05:19;;;;;;;12.07;1.35;;;;;;;;;;5095094;28;20024;-82
2022/08/26 06:10:32;;;;;;;5.93;1.00;;;;;;;;;;5113488;28;20042;-84
2022/08/26 06:12:58;;;;;;;5.13;1.20;;;;;;;;;;5113267;28;20051;-84
2022/08/26 06:15:24;;;;;;;7.00;1.40;;;;;;;;;;5128953;27;20027;-84
2022/08/26 06:17:50;;;;;;;8.65;1.23;;;;;;;;;;5096922;28;20024;-84
2022/08/26 06:20:17;;;;;;;8.35;1.20;;;;;;;;;;5099564;27;20360;-84
2022/08/26 06:25:39;;;;;;;6.20;1.17;;;;;;;;;;5103935;27;20030;-84
2022/08/26 06:28:06;;;;;;;8.10;1.10;;;;;;;;;;5094358;28;20418;-85
2022/08/26 06:30:33;;;;;;;7.60;1.52;;;;;;;;;;5094732;28;20027;-84
2022/08/26 06:32:59;;;;;;;6.38;1.00;;;;;;;;;;5094597;28;20027;-84
2022/08/26 06:35:26;;;;;;;10.63;2.05;;;;;;;;;;5118997;27;20887;-84
2022/08/26 06:37:52;;;;;;;5.75;0.80;;;;;;;;;;5113496;28;20019;-84
2022/08/26 06:40:19;;;;;;;8.82;1.02;;;;;;;;;;5113451;27;20023;-84
2022/08/26 06:42:45;;;;;;;13.10;1.30;;;;;;;;;;5113766;28;20045;-83
2022/08/26 06:45:11;;;;;;;6.05;0.88;;;;;;;;;;5094469;28;20027;-84
2022/08/26 06:47:37;;;;;;;4.05;1.00;;;;;;;;;;5110978;28;20019;-83
2022/08/26 06:50:04;;;;;;;8.48;1.20;;;;;;;;;;5105715;28;20058;-84
2022/08/26 06:52:30;;;;;;;15.40;2.15;;;;;;;;;;5112609;28;20027;-84
2022/08/26 06:54:56;;;;;;;6.18;1.13;;;;;;;;;;5094282;28;20034;-84
2022/08/26 06:57:22;;;;;;;9.18;1.23;;;;;;;;;;5109736;28;20102;-84
2022/08/26 06:59:48;;;;;;;4.38;1.02;;;;;;;;;;5112613;28;20092;-84
2022/08/26 07:02:14;;;;;;;11.63;1.10;;;;;;;;;;5130742;28;20024;-83
2022/08/26 07:04:40;;;;;;;9.57;1.27;;;;;;;;;;5094519;28;20027;-84
2022/08/26 07:07:07;;;;;;;6.53;1.20;;;;;;;;;;5112967;28;20027;-83
2022/08/26 07:09:34;;;;;;;8.38;1.55;;;;;;;;;;5094471;28;20055;-83
2022/08/26 07:12:01;;;;;;;14.20;1.10;;;;;;;;;;5113020;28;20070;-83
2022/08/26 07:14:27;;;;;;;5.90;0.95;;;;;;;;;;5094429;28;20027;-83
2022/08/26 07:16:53;;;;;;;12.85;1.58;;;;;;;;;;5112696;28;20330;-83
2022/08/26 07:19:20;;;;;;;7.72;1.50;;;;;;;;;;5094359;28;20053;-84
2022/08/26 07:21:46;;;;;;;5.95;1.50;;;;;;;;;;5094170;28;20023;-85
2022/08/26 07:24:12;;;;;;;7.45;1.00;;;;;;;;;;5094170;28;20031;-85
2022/08/26 07:26:39;;;;;;;9.75;1.10;;;;;;;;;;5112296;28;20024;-85
2022/08/26 07:29:05;;;;;;;6.07;1.00;;;;;;;;;;5094456;28;20023;-87
2022/08/26 07:31:34;;;;;;;5.88;1.20;;;;;;;;;;5112997;28;20027;-84
2022/08/26 07:34:00;;;;;;;6.38;1.27;;;;;;;;;;5112771;28;20023;-86
2022/08/26 07:36:27;;;;;;;8.43;1.23;;;;;;;;;;5094080;28;20511;-84
2022/08/26 07:38:54;;;;;;;10.05;1.38;;;;;;;;;;5094668;28;20019;-84
2022/08/26 07:41:22;;;;;;;8.75;1.23;;;;;;;;;;5111367;28;20027;-83
2022/08/26 07:43:48;;;;;;;5.90;0.93;;;;;;;;;;5094118;28;20076;-84
2022/08/26 07:46:18;;;;;;;11.95;1.23;;;;;;;;;;5109605;28;20495;-84
2022/08/26 07:48:44;;;;;;;6.78;1.23;;;;;;;;;;5133350;28;20065;-84
2022/08/26 07:51:11;;;;;;;10.80;1.23;;;;;;;;;;5133134;28;20380;-84
2022/08/26 07:53:38;;;;;;;8.10;1.38;;;;;;;;;;5133191;28;20124;-82
2022/08/26 07:56:04;;;;;;;4.72;0.88;;;;;;;;;;5106928;28;20042;-83
2022/08/26 07:58:30;;;;;;;8.13;1.05;;;;;;;;;;5096209;28;20084;-84
2022/08/26 08:00:56;;;;;;;12.30;1.40;;;;;;;;;;5117339;28;20100;-85
2022/08/26 08:03:23;;;;;;;10.07;1.35;;;;;;;;;;5114389;28;20016;-84
2022/08/26 08:05:49;;;;;;;5.85;0.98;;;;;;;;;;5097911;28;20034;-79
2022/08/26 08:08:15;;;;;;;7.80;1.10;;;;;;;;;;5124483;27;20031;-85
2022/08/26 08:10:43;;;;;;;5.82;1.00;;;;;;;;;;5136681;27;20047;-85
2022/08/26 08:13:09;;;;;;;10.02;1.95;;;;;;;;;;5127778;27;20033;-85
2022/08/26 08:15:36;;;;;;;6.97;1.42;;;;;;;;;;5116137;28;20016;-85
2022/08/26 08:18:03;;;;;;;8.68;1.00;;;;;;;;;;5123192;27;20116;-85
2022/08/26 08:20:29;;;;;;;9.80;1.35;;;;;;;;;;5118010;27;20030;-85
2022/08/26 08:22:55;;;;;;;13.90;1.60;;;;;;;;;;5136498;27;20015;-85
2022/08/26 08:25:21;;;;;;;6.32;1.13;;;;;;;;;;5122403;27;20023;-85
2022/08/26 08:27:47;;;;;;;7.10;1.00;;;;;;;;;;5096997;28;20024;-85
2022/08/26 08:30:14;;;;;;;13.68;1.48;;;;;;;;;;5115539;28;20046;-86
2022/08/26 08:32:42;;;;;;;8.00;0.90;;;;;;;;;;5128148;27;20023;-86
2022/08/26 08:35:08;;;;;;;9.48;1.00;;;;;;;;;;5107917;28;20024;-86
2022/08/26 08:37:35;;;;;;;9.40;1.05;;;;;;;;;;5097267;28;20457;-86
2022/08/26 08:40:01;;;;;;;7.05;1.42;;;;;;;;;;5099978;28;20015;-85
2022/08/26 08:42:37;;;;;;;9.05;1.10;;;;;;;;;;5109998;28;20050;-85
2022/08/26 08:45:07;;;;;;;12.70;1.00;;;;;;;;;;5097015;28;20024;-85
2022/08/26 08:47:35;;;;;;;10.32;1.08;;;;;;;;;;5116339;27;20019;-86
2022/08/26 08:50:09;;;;;;;7.28;0.95;;;;;;;;;;5131029;27;20075;-86
2022/08/26 08:52:36;;;;;;;7.85;0.93;;;;;;;;;;5117269;27;20028;-85
2022/08/26 08:55:03;;;;;;;10.07;0.95;;;;;;;;;;5136222;27;20385;-85
2022/08/26 08:57:52;;;;;;;6.03;0.98;;;;;;;;;;5115844;28;20107;-85
2022/08/26 09:00:21;;;;;;;10.48;1.60;;;;;;;;;;5109156;28;20105;-85
2022/08/26 09:02:51;;;;;;;7.43;0.95;;;;;;;;;;5096696;28;20135;-83
2022/08/26 09:05:25;;;;;;;7.18;1.30;;;;;;;;;;5115027;28;20024;-84
2022/08/26 09:07:53;;;;;;;5.35;0.77;;;;;;;;;;5114598;28;20598;-82
2022/08/26 09:10:29;;;;;;;5.10;1.10;;;;;;;;;;5096422;28;20035;-85
2022/08/26 09:12:56;;;;;;;12.23;0.90;;;;;;;;;;5096578;28;20039;-83
2022/08/26 09:15:25;;;;;;;6.35;0.98;;;;;;;;;;5114970;28;20043;-85
2022/08/26 09:18:10;;;;;;;5.13;0.75;;;;;;;;;;5105020;28;20035;-82
2022/08/26 09:20:36;;;;;;;6.32;0.80;;;;;;;;;;5096513;28;20027;-81
2022/08/26 09:23:02;;;;;;;5.65;0.65;;;;;;;;;;5096456;28;20065;-85
2022/08/26 09:25:28;;;;;;;6.18;1.25;;;;;;;;;;5096693;28;20469;-85
2022/08/26 09:27:54;;;;;;;7.35;1.00;;;;;;;;;;5115190;28;20020;-86
2022/08/26 09:30:28;;;;;;;6.28;1.02;;;;;;;;;;5114791;28;20055;-85
2022/08/26 09:32:59;;;;;;;3.95;0.88;;;;;;;;;;5094182;28;20553;-85
2022/08/26 09:35:27;;;;;;;4.68;0.70;;;;;;;;;;5126235;27;20058;-84
2022/08/26 09:37:53;;;;;;;5.57;0.85;;;;;;;;;;5114725;28;20019;-84
2022/08/26 09:40:33;;;;;;;12.75;1.20;;;;;;;;;;5117502;27;20024;-84
2022/08/26 09:43:10;;;;;;;2.97;0.57;;;;;;;;;;5121329;27;20110;-84
2022/08/26 09:45:37;;;;;;;10.18;0.80;;;;;;;;;;5131968;27;20115;-83
2022/08/26 09:48:04;;;;;;;11.48;0.90;;;;;;;;;;5125344;27;20059;-84
2022/08/26 09:50:32;;;;;;;4.13;0.90;;;;;;;;;;5117641;27;20457;-84
2022/08/26 09:53:18;;;;;;;4.82;0.80;;;;;;;;;;5096001;28;20475;-84
2022/08/26 09:55:46;;;;;;;6.70;0.90;;;;;;;;;;5095972;28;20024;-84
2022/08/26 09:58:32;;;;;;;5.03;0.93;;;;;;;;;;5114161;28;20035;-84
2022/08/26 10:01:00;;;;;;;4.18;0.80;;;;;;;;;;5075051;28;20044;-83
2022/08/26 10:03:31;;;;;;;4.35;1.33;;;;;;;;;;5075397;28;20035;-84
2022/08/26 10:06:02;;;;;;;2.45;0.60;;;;;;;;;;5075445;28;20024;-81
2022/08/26 10:08:33;;;;;;;6.45;1.40;;;;;;;;;;5075531;28;20054;-81
2022/08/26 10:11:00;;;;;;;8.45;0.95;;;;;;;;;;5110733;28;20384;-79
2022/08/26 10:13:35;;;;;;;8.45;0.80;;;;;;;;;;5113559;28;20061;-80
2022/08/26 10:16:06;;;;;;;13.85;1.13;;;;;;;;;;5120917;27;20539;-80
2022/08/26 10:18:35;;;;;;;8.32;0.80;;;;;;;;;;5122350;27;20390;-82
2022/08/26 10:21:05;;;;;;;11.00;1.00;;;;;;;;;;5114239;28;20024;-80
2022/08/26 10:23:34;;;;;;;9.07;1.10;;;;;;;;;;5114257;28;20161;-81
2022/08/26 10:26:19;;;;;;;4.07;0.70;;;;;;;;;;5113087;28;20019;-80
2022/08/26 10:28:51;;;;;;;6.70;1.00;;;;;;;;;;5113658;28;20031;-80
2022/08/26 10:31:17;;;;;;;6.38;1.00;;;;;;;;;;5119424;27;20103;-80
2022/08/26 10:33:43;;;;;;;4.55;0.68;;;;;;;;;;5126704;27;20031;-80
2022/08/26 10:36:47;;;;;;;11.27;1.67;;;;;;;;;;5132604;27;20098;-80
2022/08/26 10:39:01;;;;;;;6.18;0.65;;;;;;;;;;5119411;27;20027;-81
2022/08/26 10:41:31;;;;;;;6.53;0.98;;;;;;;;;;5122503;27;20031;-81
2022/08/26 10:43:59;;;;;;;5.90;0.70;;;;;;;;;;5115699;28;20110;-80
2022/08/26 10:46:27;;;;;;;4.15;0.75;;;;;;;;;;5125435;27;20028;-80
2022/08/26 10:48:54;;;;;;;5.28;0.70;;;;;;;;;;5095264;28;20020;-80
2022/08/26 10:51:24;;;;;;;7.07;1.67;;;;;;;;;;5116652;28;20028;-81
2022/08/26 10:53:56;;;;;;;4.00;0.80;;;;;;;;;;5113174;28;20024;-82
2022/08/26 10:56:34;;;;;;;6.43;0.85;;;;;;;;;;5113088;28;20119;-80
2022/08/26 10:59:03;;;;;;;4.82;0.75;;;;;;;;;;5114101;28;20011;-80
2022/08/26 11:01:56;;;;;;;6.18;0.70;;;;;;;;;;5133889;28;20097;-80
2022/08/26 11:04:22;;;;;;;;;;;;;;;;;;5069707;28;20059;-80
2022/08/26 11:06:48;;;;;;;3.47;0.70;;;;;;;;;;5111472;28;19908;-80
2022/08/26 11:09:34;;;;;;;4.07;0.60;;;;;;;;;;5113566;28;20107;-80
2022/08/26 11:12:00;;;;;;;8.65;0.68;;;;;;;;;;5098957;28;20035;-81
2022/08/26 11:14:31;;;;;;;3.80;0.90;;;;;;;;;;5113430;28;20031;-81
2022/08/26 11:16:58;;;;;;;4.68;0.50;;;;;;;;;;5113255;28;20028;-81
2022/08/26 11:19:37;;;;;;;2.72;0.50;;;;;;;;;;5112901;28;20069;-82
2022/08/26 11:22:08;;;;;;;3.25;0.90;;;;;;;;;;5124858;28;20445;-81
2022/08/26 11:24:55;;;;;;;4.55;0.50;;;;;;;;;;5112702;28;20354;-81
2022/08/26 11:27:24;;;;;;;7.53;0.70;;;;;;;;;;5105913;28;20085;-81
2022/08/26 11:30:09;;;;;;;3.17;0.50;;;;;;;;;;5094585;28;20051;-81
2022/08/26 11:32:38;;;;;;;3.78;0.45;;;;;;;;;;5113006;28;20028;-81
2022/08/26 11:35:05;;;;;;;3.55;0.55;;;;;;;;;;5119686;28;20016;-81
2022/08/26 11:37:34;;;;;;;5.22;0.70;;;;;;;;;;5112750;28;20058;-81
2022/08/26 11:40:03;;;;;;;5.13;0.68;;;;;;;;;;5134478;27;20019;-80
2022/08/26 11:42:33;;;;;;;3.72;0.60;;;;;;;;;;5124720;27;20051;-80
2022/08/26 11:45:00;;;;;;;3.75;0.60;;;;;;;;;;5116202;28;20023;-80
2022/08/26 11:47:30;;;;;;;2.83;0.60;;;;;;;;;;5124425;27;20011;-80
2022/08/26 11:50:10;;;;;;;3.83;0.55;;;;;;;;;;5135523;27;20043;-80
2022/08/26 11:52:36;;;;;;;3.72;0.50;;;;;;;;;;5137157;27;20031;-80
2022/08/26 11:55:10;;;;;;;7.20;0.70;;;;;;;;;;5118853;27;20436;-80
2022/08/26 11:57:45;;;;;;;5.57;1.00;;;;;;;;;;5137627;27;20023;-80
2022/08/26 12:00:17;;;;;;;5.70;0.80;;;;;;;;;;5136862;27;20058;-79
2022/08/26 12:02:43;;;;;;;7.28;0.70;;;;;;;;;;5108907;28;20111;-80
2022/08/26 12:05:12;;;;;;;8.43;0.90;;;;;;;;;;5116425;28;20024;-80
2022/08/26 12:07:38;;;;;;;9.18;1.00;;;;;;;;;;5116788;28;20439;-80
2022/08/26 12:10:05;;;;;;;9.95;0.70;;;;;;;;;;5097955;28;20458;-80
2022/08/26 12:12:33;;;;;;;6.63;0.80;;;;;;;;;;5097485;28;20454;-82
2022/08/26 12:15:20;;;;;;;2.40;0.60;;;;;;;;;;5098062;28;20491;-85
2022/08/26 12:17:49;;;;;;;6.57;0.65;;;;;;;;;;5104813;28;20035;-81
2022/08/26 12:20:52;;;;;;;7.45;0.90;;;;;;;;;;5096247;28;20016;-80
2022/08/26 12:23:37;;;;;;;6.30;0.82;;;;;;;;;;5092314;28;20107;-85
2022/08/26 12:26:03;;;;;;;3.60;0.57;;;;;;;;;;5115732;28;20099;-82
2022/08/26 12:28:30;;;;;;;4.28;0.60;;;;;;;;;;5115350;28;20023;-84
2022/08/26 12:31:06;;;;;;;1.85;0.47;;;;;;;;;;5115597;28;20015;-84
2022/08/26 12:33:34;;;;;;;4.90;0.55;;;;;;;;;;5096724;28;20016;-82
2022/08/26 12:36:01;;;;;;;8.32;0.93;;;;;;;;;;5076634;28;20477;-83
2022/08/26 12:38:28;;;;;;;6.07;0.60;;;;;;;;;;5099432;28;20077;-82
2022/08/26 12:40:54;;;;;;;2.13;0.47;;;;;;;;;;5085514;28;20035;-82
2022/08/26 12:43:38;;;;;;;4.82;0.70;;;;;;;;;;5102932;28;20045;-80
2022/08/26 12:46:04;;;;;;;4.03;0.85;;;;;;;;;;5130546;27;20023;-82
2022/08/26 12:48:35;;;;;;;12.63;0.80;;;;;;;;;;5135822;27;20034;-82
2022/08/26 12:51:02;;;;;;;7.15;0.60;;;;;;;;;;5125301;27;20043;-81
2022/08/26 12:53:30;;;;;;;2.50;0.32;;;;;;;;;;5095687;28;20021;-82
2022/08/26 12:56:04;;;;;;;1.08;0.40;;;;;;;;;;5096529;28;20023;-80
2022/08/26 12:58:30;;;;;;;3.65;0.52;;;;;;;;;;5115111;28;20377;-80
2022/08/26 13:01:07;;;;;;;5.68;0.50;;;;;;;;;;5115080;28;20051;-80
2022/08/26 13:03:36;;;;;;;3.65;0.80;;;;;;;;;;5109749;28;20020;-80
2022/08/26 13:06:17;;;;;;;7.40;1.30;;;;;;;;;;5113470;28;20115;-81
2022/08/26 13:08:46;;;;;;;3.03;0.50;;;;;;;;;;5113731;28;20361;-81
2022/08/26 13:11:19;;;;;;;8.68;0.73;;;;;;;;;;5113036;28;20030;-81
2022/08/26 13:13:45;;;;;;;2.58;0.40;;;;;;;;;;5092673;28;20081;-81
2022/08/26 13:16:12;;;;;;;5.35;0.50;;;;;;;;;;5094732;27;20024;-81
2022/08/26 13:18:38;;;;;;;2.60;0.28;;;;;;;;;;5111402;27;20015;-80
2022/08/26 13:21:23;;;;;;;1.25;0.30;;;;;;;;;;5096291;28;20073;-80
2022/08/26 13:23:49;;;;;;;3.22;0.38;;;;;;;;;;5115273;28;20097;-81
2022/08/26 13:26:15;;;;;;;6.90;0.55;;;;;;;;;;5116498;27;20445;-82
2022/08/26 13:28:42;;;;;;;5.47;0.50;;;;;;;;;;5114995;27;20031;-80
2022/08/26 13:31:10;;;;;;;7.53;0.40;;;;;;;;;;5096315;28;20031;-81
2022/08/26 13:33:43;;;;;;;4.95;0.50;;;;;;;;;;5102620;27;20015;-79
2022/08/26 13:36:12;;;;;;;7.88;0.68;;;;;;;;;;5133376;27;20027;-80
2022/08/26 13:38:38;;;;;;;2.50;0.60;;;;;;;;;;5095006;28;20047;-80
2022/08/26 13:41:04;;;;;;;5.60;0.73;;;;;;;;;;5115292;27;20016;-80
2022/08/26 13:43:31;;;;;;;3.45;0.68;;;;;;;;;;5122460;27;20035;-80
2022/08/26 13:45:57;;;;;;;2.13;0.50;;;;;;;;;;5098802;28;20051;-79
2022/08/26 13:48:24;;;;;;;3.20;0.60;;;;;;;;;;5096872;28;20019;-80
2022/08/26 13:50:51;;;;;;;3.60;0.50;;;;;;;;;;5095363;28;20020;-80
2022/08/26 13:53:17;;;;;;;4.35;0.70;;;;;;;;;;5114482;27;20023;-79
2022/08/26 13:55:43;;;;;;;11.05;1.70;;;;;;;;;;5098456;27;20053;-81
2022/08/26 13:58:10;;;;;;;4.55;0.95;;;;;;;;;;5094714;28;20035;-81
2022/08/26 14:00:36;;;;;;;4.75;0.75;;;;;;;;;;5111926;27;20038;-83
2022/08/26 14:03:03;;;;;;;12.32;1.65;;;;;;;;;;5134569;27;20019;-80
2022/08/26 14:05:29;;;;;;;7.90;1.30;;;;;;;;;;5131073;27;20027;-78
2022/08/26 14:07:56;;;;;;;7.28;1.33;;;;;;;;;;5115716;27;20043;-78
2022/08/26 14:10:23;;;;;;;9.13;0.80;;;;;;;;;;5133121;27;20097;-77
2022/08/26 14:12:49;;;;;;;10.80;1.27;;;;;;;;;;5114236;28;20031;-78
2022/08/26 14:15:16;;;;;;;9.70;1.20;;;;;;;;;;5100814;28;20111;-77
2022/08/26 14:17:42;;;;;;;6.00;0.90;;;;;;;;;;5114174;28;20347;-77
2022/08/26 14:20:11;;;;;;;4.22;1.20;;;;;;;;;;5131254;27;20019;-78
2022/08/26 14:22:38;;;;;;;6.65;1.05;;;;;;;;;;5112501;27;20027;-78
2022/08/26 14:25:04;;;;;;;3.92;0.90;;;;;;;;;;5108549;28;20102;-78
2022/08/26 14:27:31;;;;;;;6.75;0.80;;;;;;;;;;5113315;28;20032;-79
2022/08/26 14:29:58;;;;;;;6.05;0.95;;;;;;;;;;5096542;28;20035;-79
2022/08/26 14:32:26;;;;;;;4.90;0.82;;;;;;;;;;5116885;27;20027;-78
2022/08/26 14:34:53;;;;;;;5.43;0.90;;;;;;;;;;5122384;27;20110;-78
2022/08/26 14:37:19;;;;;;;7.53;1.00;;;;;;;;;;5113180;27;20047;-77
2022/08/26 14:39:45;;;;;;;7.55;1.00;;;;;;;;;;5119970;27;20085;-78
2022/08/26 14:42:14;;;;;;;5.63;0.80;;;;;;;;;;5117911;27;20024;-78
2022/08/26 14:47:30;;;;;;;6.18;0.90;;;;;;;;;;5118433;27;20043;-77
2022/08/26 14:49:56;;;;;;;5.82;1.38;;;;;;;;;;5115910;27;20032;-78
2022/08/26 14:52:23;;;;;;;7.57;1.00;;;;;;;;;;5120955;27;20023;-77
2022/08/26 14:54:49;;;;;;;6.43;1.10;;;;;;;;;;5124304;27;20023;-77
2022/08/26 14:57:15;;;;;;;7.95;0.90;;;;;;;;;;5105607;28;20046;-77